createdAt,value
2018-10-07T00:00:12.673Z,16.43
2018-10-07T00:02:41.549Z,12.63
2018-10-07T00:05:10.420Z,9.63
2018-10-07T00:07:39.372Z,19.40
2018-10-07T00:10:08.250Z,15.80
2018-10-07T00:12:37.181Z,11.33
2018-10-07T00:15:06.173Z,8.27
2018-10-07T00:17:35.045Z,13.77
2018-10-07T00:20:03.947Z,10.30
2018-10-07T00:22:32.782Z,11.13
2018-10-07T00:25:01.656Z,10.23
2018-10-07T00:27:30.547Z,16.77
2018-10-07T00:29:59.385Z,13.10
2018-10-07T00:32:28.262Z,16.90
2018-10-07T00:34:57.096Z,12.93
2018-10-07T00:37:25.969Z,13.33
2018-10-07T00:39:54.852Z,13.88
2018-10-07T00:42:23.832Z,17.07
2018-10-07T00:44:52.695Z,17.30
2018-10-07T00:47:21.668Z,15.50
2018-10-07T00:49:50.485Z,11.93
2018-10-07T00:52:20.651Z,14.80
2018-10-07T00:54:49.960Z,12.07
2018-10-07T00:57:18.904Z,19.07
2018-10-07T00:59:48.154Z,15.77
2018-10-07T01:02:17.010Z,14.13
2018-10-07T01:04:45.848Z,15.17
2018-10-07T01:07:14.729Z,18.03
2018-10-07T01:09:43.861Z,14.45
2018-10-07T01:12:13.066Z,16.50
2018-10-07T01:14:41.909Z,9.77
2018-10-07T01:17:10.806Z,11.93
2018-10-07T01:19:39.685Z,11.33
2018-10-07T01:22:08.549Z,12.30
2018-10-07T01:24:37.404Z,12.47
2018-10-07T01:27:06.285Z,9.43
2018-10-07T01:29:35.114Z,8.90
2018-10-07T01:32:03.972Z,9.65
2018-10-07T01:34:32.874Z,13.57
2018-10-07T01:37:01.703Z,11.10
2018-10-07T01:39:30.572Z,8.73
2018-10-07T01:41:59.440Z,9.87
2018-10-07T01:44:28.338Z,10.03
2018-10-07T01:46:57.193Z,14.80
2018-10-07T01:49:26.045Z,12.67
2018-10-07T01:51:54.910Z,10.47
2018-10-07T01:54:23.773Z,13.37
2018-10-07T01:56:52.597Z,14.57
2018-10-07T01:59:21.555Z,11.43
2018-10-07T02:01:50.450Z,13.13
2018-10-07T02:04:19.297Z,14.10
2018-10-07T02:06:48.354Z,10.07
2018-10-07T02:09:17.224Z,13.47
2018-10-07T02:11:46.145Z,19.27
2018-10-07T02:14:14.996Z,15.50
2018-10-07T02:16:43.904Z,21.33
2018-10-07T02:19:12.728Z,15.90
2018-10-07T02:21:41.597Z,13.93
2018-10-07T02:24:10.446Z,14.30
2018-10-07T02:26:39.295Z,11.67
2018-10-07T02:29:08.172Z,14.87
2018-10-07T02:31:37.007Z,14.10
2018-10-07T02:34:05.867Z,15.00
2018-10-07T02:36:34.690Z,14.67
2018-10-07T02:39:04.569Z,8.00
2018-10-07T02:41:33.445Z,12.20
2018-10-07T02:44:02.535Z,10.03
2018-10-07T02:46:31.427Z,12.23
2018-10-07T02:49:00.253Z,7.57
2018-10-07T02:51:29.313Z,8.47
2018-10-07T02:53:58.147Z,11.63
2018-10-07T02:56:27.116Z,14.57
2018-10-07T02:58:56.000Z,12.70
2018-10-07T03:01:24.885Z,10.00
2018-10-07T03:03:53.721Z,8.97
2018-10-07T03:06:22.612Z,10.27
2018-10-07T03:08:51.443Z,9.00
2018-10-07T03:11:20.254Z,8.77
2018-10-07T03:13:49.164Z,11.77
2018-10-07T03:16:17.988Z,13.13
2018-10-07T03:18:46.889Z,11.53
2018-10-07T03:21:15.758Z,13.13
2018-10-07T03:23:44.616Z,12.03
2018-10-07T03:26:14.417Z,9.07
2018-10-07T03:28:43.253Z,12.57
2018-10-07T03:31:12.098Z,11.13
2018-10-07T03:33:40.980Z,10.90
2018-10-07T03:36:09.828Z,14.60
2018-10-07T03:38:38.660Z,12.77
2018-10-07T03:41:07.724Z,10.77
2018-10-07T03:43:36.577Z,12.43
2018-10-07T03:46:05.407Z,10.73
2018-10-07T03:48:34.293Z,11.03
2018-10-07T03:51:03.201Z,10.97
2018-10-07T03:53:32.077Z,12.77
2018-10-07T03:56:01.474Z,18.23
2018-10-07T03:58:30.347Z,14.83
2018-10-07T04:00:59.175Z,18.40
2018-10-07T04:03:28.089Z,17.10
2018-10-07T04:05:56.940Z,20.47
2018-10-07T04:08:25.756Z,17.67
2018-10-07T04:10:54.607Z,17.17
2018-10-07T04:13:23.469Z,20.30
2018-10-07T04:15:52.293Z,19.93
2018-10-07T04:18:21.245Z,17.27
2018-10-07T04:20:50.072Z,18.87
2018-10-07T04:23:18.906Z,17.47
2018-10-07T04:25:47.865Z,17.90
2018-10-07T04:28:16.744Z,19.37
2018-10-07T04:30:45.618Z,18.37
2018-10-07T04:33:14.453Z,20.40
2018-10-07T04:35:43.321Z,18.17
2018-10-07T04:38:12.225Z,16.87
2018-10-07T04:40:41.066Z,21.63
2018-10-07T04:43:09.912Z,21.87
2018-10-07T04:45:38.784Z,23.77
2018-10-07T04:48:07.628Z,24.80
2018-10-07T04:50:36.481Z,27.23
2018-10-07T04:53:05.416Z,30.33
2018-10-07T04:55:34.253Z,28.23
2018-10-07T04:58:03.181Z,28.47
2018-10-07T05:00:32.094Z,27.87
2018-10-07T05:03:01.012Z,31.37
2018-10-07T05:05:29.999Z,30.03
2018-10-07T05:07:59.050Z,32.90
2018-10-07T05:10:46.638Z,30.93
2018-10-07T05:13:24.619Z,32.90
2018-10-07T05:16:08.954Z,32.73
2018-10-07T05:18:37.968Z,38.50
2018-10-07T05:21:06.916Z,25.53
2018-10-07T05:23:35.781Z,27.37
2018-10-07T05:26:04.677Z,30.80
2018-10-07T05:28:33.521Z,27.80
2018-10-07T05:31:02.445Z,25.13
2018-10-07T05:33:31.411Z,20.73
2018-10-07T05:36:00.218Z,21.07
2018-10-07T05:38:29.061Z,21.30
2018-10-07T05:40:58.005Z,21.43
2018-10-07T05:43:26.911Z,21.23
2018-10-07T05:45:55.761Z,22.47
2018-10-07T05:48:24.584Z,20.87
2018-10-07T05:50:53.593Z,18.60
2018-10-07T05:53:22.465Z,18.60
2018-10-07T05:55:51.371Z,24.65
2018-10-07T05:58:20.374Z,26.07
2018-10-07T06:00:49.396Z,26.50
2018-10-07T06:03:21.813Z,20.07
2018-10-07T06:05:51.190Z,19.47
2018-10-07T06:08:20.184Z,18.50
2018-10-07T06:10:49.088Z,19.60
2018-10-07T06:13:17.934Z,23.97
2018-10-07T06:15:46.816Z,23.03
2018-10-07T06:18:15.664Z,24.93
2018-10-07T06:20:44.592Z,19.00
2018-10-07T06:23:13.457Z,18.93
2018-10-07T06:25:42.283Z,15.47
2018-10-07T06:28:11.149Z,15.43
2018-10-07T06:30:39.993Z,15.23
2018-10-07T06:33:08.904Z,13.07
2018-10-07T06:35:37.860Z,12.23
2018-10-07T06:38:06.693Z,12.53
2018-10-07T06:40:35.571Z,12.80
2018-10-07T06:43:05.204Z,15.77
2018-10-07T06:45:34.042Z,10.70
2018-10-07T06:48:03.012Z,12.33
2018-10-07T06:50:31.884Z,10.60
2018-10-07T06:53:00.732Z,12.73
2018-10-07T06:55:29.657Z,13.57
2018-10-07T06:57:58.513Z,11.90
2018-10-07T07:00:27.421Z,12.07
2018-10-07T07:02:56.377Z,11.13
2018-10-07T07:05:25.209Z,9.47
2018-10-07T07:07:54.130Z,7.67
2018-10-07T07:10:22.996Z,6.33
2018-10-07T07:12:51.846Z,6.87
2018-10-07T07:15:20.799Z,6.80
2018-10-07T07:17:49.656Z,4.93
2018-10-07T07:20:18.661Z,6.17
2018-10-07T07:22:47.464Z,6.50
2018-10-07T07:25:16.345Z,7.23
2018-10-07T07:27:45.219Z,9.50
2018-10-07T07:30:14.141Z,7.97
2018-10-07T07:32:43.032Z,4.87
2018-10-07T07:35:11.908Z,6.60
2018-10-07T07:37:40.827Z,5.17
2018-10-07T07:40:09.809Z,7.77
2018-10-07T07:42:38.651Z,6.43
2018-10-07T07:45:07.524Z,5.37
2018-10-07T07:47:36.418Z,4.40
2018-10-07T07:50:05.952Z,6.17
2018-10-07T07:52:34.984Z,4.40
2018-10-07T07:55:04.189Z,6.77
2018-10-07T07:57:33.037Z,4.53
2018-10-07T08:00:01.901Z,7.23
2018-10-07T08:02:30.865Z,3.53
2018-10-07T08:04:59.707Z,5.73
2018-10-07T08:07:28.565Z,7.73
2018-10-07T08:09:57.405Z,5.60
2018-10-07T08:12:26.349Z,7.87
2018-10-07T08:14:55.282Z,5.93
2018-10-07T08:17:24.287Z,6.27
2018-10-07T08:19:53.146Z,8.30
2018-10-07T08:22:22.168Z,3.73
2018-10-07T08:24:51.083Z,6.47
2018-10-07T08:27:19.959Z,4.93
2018-10-07T08:29:48.918Z,8.40
2018-10-07T08:32:17.808Z,6.00
2018-10-07T08:34:46.761Z,6.05
2018-10-07T08:37:15.612Z,3.30
2018-10-07T08:39:44.457Z,6.37
2018-10-07T08:42:13.369Z,5.37
2018-10-07T08:44:42.220Z,3.80
2018-10-07T08:47:12.064Z,7.07
2018-10-07T08:49:40.980Z,9.28
2018-10-07T08:52:09.880Z,9.80
2018-10-07T08:54:38.731Z,3.83
2018-10-07T08:57:07.987Z,6.65
2018-10-07T08:59:36.820Z,7.07
2018-10-07T09:02:05.761Z,5.67
2018-10-07T09:04:34.616Z,6.73
2018-10-07T09:07:03.758Z,6.90
2018-10-07T09:09:32.608Z,6.28
2018-10-07T09:12:01.455Z,10.27
2018-10-07T09:14:30.376Z,2.87
2018-10-07T09:16:59.271Z,4.43
2018-10-07T09:19:28.143Z,5.93
2018-10-07T09:21:57.692Z,7.63
2018-10-07T09:24:26.594Z,5.22
2018-10-07T09:26:55.576Z,4.72
2018-10-07T09:29:24.591Z,6.25
2018-10-07T09:31:53.467Z,5.50
2018-10-07T09:34:22.555Z,6.30
2018-10-07T09:36:51.507Z,5.85
2018-10-07T09:39:20.482Z,8.00
2018-10-07T09:41:49.319Z,4.07
2018-10-07T09:44:18.339Z,5.60
2018-10-07T09:46:49.018Z,4.92
2018-10-07T09:49:18.001Z,5.90
2018-10-07T09:51:46.875Z,4.80
2018-10-07T09:54:15.797Z,5.33
2018-10-07T09:56:44.699Z,6.12
2018-10-07T09:59:13.662Z,5.20
2018-10-07T10:01:42.506Z,3.37
2018-10-07T10:04:11.847Z,6.37
2018-10-07T10:06:40.726Z,2.90
2018-10-07T10:09:10.493Z,4.72
2018-10-07T10:11:39.472Z,4.72
2018-10-07T10:14:10.925Z,4.85
2018-10-07T10:16:42.874Z,4.25
2018-10-07T10:19:15.999Z,3.70
2018-10-07T10:21:45.568Z,6.60
2018-10-07T10:24:30.828Z,6.12
2018-10-07T10:27:16.797Z,4.53
2018-10-07T10:29:46.809Z,6.73
2018-10-07T10:32:21.068Z,5.08
2018-10-07T10:35:55.827Z,5.47
2018-10-07T10:38:27.595Z,5.75
2018-10-07T10:40:58.709Z,5.00
2018-10-07T10:43:28.985Z,8.55
2018-10-07T10:46:17.632Z,4.08
2018-10-07T10:48:51.007Z,7.35
2018-10-07T10:51:24.171Z,6.37
2018-10-07T10:53:57.439Z,8.43
2018-10-07T10:56:29.958Z,14.13
2018-10-07T11:01:05.886Z,6.22
2018-10-07T11:03:41.194Z,3.92
2018-10-07T11:06:15.484Z,5.25
2018-10-07T11:08:53.584Z,4.45
2018-10-07T11:11:25.006Z,6.12
2018-10-07T11:14:03.009Z,4.72
2018-10-07T11:16:36.229Z,6.03
2018-10-07T11:19:11.788Z,7.00
2018-10-07T11:22:44.389Z,6.67
2018-10-07T11:25:18.119Z,6.97
2018-10-07T11:27:52.286Z,4.95
2018-10-07T11:30:28.344Z,3.77
2018-10-07T11:32:59.654Z,3.15
2018-10-07T11:35:36.646Z,6.90
2018-10-07T11:39:10.918Z,4.25
2018-10-07T11:41:46.094Z,4.70
2018-10-07T11:44:19.381Z,4.25
2018-10-07T11:46:54.785Z,8.38
2018-10-07T11:49:28.549Z,6.40
2018-10-07T11:51:59.497Z,5.85
2018-10-07T11:55:06.537Z,6.35
2018-10-07T11:57:35.677Z,3.40
2018-10-07T12:00:04.699Z,6.08
2018-10-07T12:02:33.983Z,7.03
2018-10-07T12:05:09.199Z,5.83
2018-10-07T12:07:38.425Z,4.03
2018-10-07T12:10:08.106Z,7.17
2018-10-07T12:12:37.401Z,23.92
2018-10-07T12:15:06.437Z,53.00
2018-10-07T12:17:35.954Z,23.32
2018-10-07T12:20:05.844Z,33.13
2018-10-07T12:22:35.925Z,21.97
2018-10-07T12:25:06.525Z,28.52
2018-10-07T12:27:36.854Z,17.67
2018-10-07T12:30:06.052Z,10.35
2018-10-07T12:32:36.018Z,8.80
2018-10-07T12:35:05.777Z,6.87
2018-10-07T12:37:34.968Z,6.00
2018-10-07T12:40:03.973Z,7.10
2018-10-07T12:42:35.711Z,5.33
2018-10-07T12:45:06.287Z,5.50
2018-10-07T12:47:35.845Z,5.42
2018-10-07T12:50:06.481Z,4.05
2018-10-07T12:52:37.152Z,5.03
2018-10-07T12:55:06.817Z,4.25
2018-10-07T12:57:36.704Z,4.60
2018-10-07T13:00:06.605Z,4.58
2018-10-07T13:02:36.812Z,9.18
2018-10-07T13:05:07.285Z,6.35
2018-10-07T13:07:36.711Z,6.67
2018-10-07T13:10:06.976Z,3.83
2018-10-07T13:12:35.880Z,5.42
2018-10-07T13:15:05.840Z,5.97
2018-10-07T13:17:34.689Z,4.83
2018-10-07T13:20:05.736Z,6.95
2018-10-07T13:22:35.504Z,5.85
2018-10-07T13:25:04.419Z,5.08
2018-10-07T13:27:34.209Z,5.55
2018-10-07T13:30:03.086Z,5.30
2018-10-07T13:32:32.094Z,5.70
2018-10-07T13:35:01.548Z,6.63
2018-10-07T13:37:30.472Z,2.90
2018-10-07T13:40:00.394Z,6.05
2018-10-07T13:42:29.437Z,6.12
2018-10-07T13:44:59.345Z,5.00
2018-10-07T13:47:29.276Z,5.17
2018-10-07T13:49:58.772Z,4.17
2018-10-07T13:52:27.661Z,4.87
2018-10-07T13:54:57.388Z,4.87
2018-10-07T13:57:27.312Z,4.87
2018-10-07T13:59:56.900Z,4.95
2018-10-07T14:02:26.234Z,4.37
2018-10-07T14:04:56.700Z,5.47
2018-10-07T14:07:26.373Z,4.25
2018-10-07T14:09:57.004Z,6.00
2018-10-07T14:12:26.202Z,4.72
2018-10-07T14:14:55.998Z,5.83
2018-10-07T14:17:25.357Z,3.77
2018-10-07T14:19:54.984Z,7.90
2018-10-07T14:22:24.361Z,4.17
2018-10-07T14:24:53.702Z,4.30
2018-10-07T14:27:23.413Z,5.67
2018-10-07T14:29:52.293Z,5.50
2018-10-07T14:32:21.268Z,4.87
2018-10-07T14:34:50.151Z,7.20
2018-10-07T14:37:19.424Z,2.55
2018-10-07T14:39:48.919Z,6.22
2018-10-07T14:42:17.823Z,8.20
2018-10-07T14:44:46.915Z,4.30
2018-10-07T14:47:16.417Z,2.97
2018-10-07T14:49:45.295Z,7.33
2018-10-07T14:52:15.155Z,4.95
2018-10-07T14:54:44.833Z,3.67
2018-10-07T14:57:14.257Z,3.42
2018-10-07T14:59:43.525Z,4.28
2018-10-07T15:02:13.100Z,3.87
2018-10-07T15:04:42.115Z,4.78
2018-10-07T15:07:11.770Z,6.95
2018-10-07T15:09:41.141Z,5.22
2018-10-07T15:12:10.267Z,6.08
2018-10-07T15:14:39.279Z,6.15
2018-10-07T15:17:08.730Z,6.97
2018-10-07T15:19:38.032Z,6.37
2018-10-07T15:22:07.043Z,3.20
2018-10-07T15:24:36.751Z,5.22
2018-10-07T15:27:05.733Z,7.67
2018-10-07T15:29:34.747Z,7.27
2018-10-07T15:32:04.964Z,6.15
2018-10-07T15:34:33.838Z,4.83
2018-10-07T15:37:02.717Z,6.87
2018-10-07T15:39:31.664Z,4.47
2018-10-07T15:42:00.600Z,6.70
2018-10-07T15:44:29.740Z,4.90
2018-10-07T15:46:58.586Z,6.97
2018-10-07T15:49:27.445Z,7.90
2018-10-07T15:51:56.348Z,7.90
2018-10-07T15:54:25.245Z,8.13
2018-10-07T15:56:54.088Z,5.37
2018-10-07T15:59:23.237Z,7.10
2018-10-07T16:01:52.093Z,8.30
2018-10-07T16:04:21.775Z,8.87
2018-10-07T16:06:50.637Z,5.10
2018-10-07T16:09:19.513Z,7.30
2018-10-07T16:11:48.371Z,8.17
2018-10-07T16:14:17.269Z,8.50
2018-10-07T16:16:46.162Z,8.90
2018-10-07T16:19:15.008Z,8.00
2018-10-07T16:21:43.881Z,7.57
2018-10-07T16:24:13.092Z,6.57
2018-10-07T16:26:42.104Z,5.90
2018-10-07T16:29:10.990Z,11.40
2018-10-07T16:31:39.897Z,7.90
2018-10-07T16:34:08.841Z,6.70
2018-10-07T16:36:37.709Z,10.93
2018-10-07T16:39:06.885Z,5.90
2018-10-07T16:41:36.072Z,7.70
2018-10-07T16:44:04.944Z,7.10
2018-10-07T16:46:33.910Z,7.50
2018-10-07T16:49:03.325Z,6.57
2018-10-07T16:51:32.184Z,8.10
2018-10-07T16:54:02.412Z,9.30
2018-10-07T16:56:31.396Z,6.23
2018-10-07T16:59:00.326Z,8.73
2018-10-07T17:01:29.214Z,9.60
2018-10-07T17:03:58.131Z,11.27
2018-10-07T17:06:27.056Z,11.10
2018-10-07T17:08:55.924Z,7.17
2018-10-07T17:11:24.837Z,16.53
2018-10-07T17:13:53.896Z,12.27
2018-10-07T17:16:22.752Z,9.60
2018-10-07T17:18:51.740Z,12.27
2018-10-07T17:21:20.633Z,9.07
2018-10-07T17:23:49.585Z,10.90
2018-10-07T17:26:18.488Z,8.90
2018-10-07T17:28:47.331Z,12.90
2018-10-07T17:31:16.250Z,11.53
2018-10-07T17:33:45.201Z,8.87
2018-10-07T17:36:14.105Z,11.90
2018-10-07T17:38:42.981Z,10.03
2018-10-07T17:41:11.909Z,9.37
2018-10-07T17:43:40.796Z,12.97
2018-10-07T17:46:09.629Z,13.73
2018-10-07T17:48:38.545Z,12.93
2018-10-07T17:51:07.461Z,9.03
2018-10-07T17:53:36.443Z,10.00
2018-10-07T17:56:05.351Z,7.70
2018-10-07T17:58:34.249Z,11.10
2018-10-07T18:01:03.317Z,8.57
2018-10-07T18:03:32.343Z,10.33
2018-10-07T18:06:01.641Z,12.37
2018-10-07T18:08:30.616Z,9.03
2018-10-07T18:11:00.005Z,9.37
2018-10-07T18:13:28.851Z,18.07
2018-10-07T18:15:57.732Z,13.27
2018-10-07T18:18:26.600Z,14.20
2018-10-07T18:20:55.581Z,10.97
2018-10-07T18:23:24.528Z,12.77
2018-10-07T18:25:53.441Z,13.17
2018-10-07T18:28:22.325Z,12.37
2018-10-07T18:30:52.000Z,15.07
2018-10-07T18:33:20.855Z,15.30
2018-10-07T18:35:49.794Z,12.30
2018-10-07T18:38:18.707Z,11.87
2018-10-07T18:40:47.549Z,8.83
2018-10-07T18:43:16.467Z,14.60
2018-10-07T18:45:45.401Z,10.07
2018-10-07T18:48:14.294Z,9.40
2018-10-07T18:50:43.153Z,12.37
2018-10-07T18:53:12.192Z,9.67
2018-10-07T18:55:41.065Z,15.63
2018-10-07T18:58:09.939Z,11.03
2018-10-07T19:00:38.852Z,10.57
2018-10-07T19:03:07.930Z,15.87
2018-10-07T19:05:36.861Z,15.57
2018-10-07T19:08:05.875Z,16.67
2018-10-07T19:10:34.817Z,14.80
2018-10-07T19:13:03.680Z,11.77
2018-10-07T19:15:32.647Z,10.90
2018-10-07T19:18:01.980Z,10.50
2018-10-07T19:20:30.848Z,13.77
2018-10-07T19:22:59.760Z,15.83
2018-10-07T19:25:29.101Z,10.30
2018-10-07T19:27:58.037Z,16.20
2018-10-07T19:30:27.532Z,11.63
2018-10-07T19:32:56.376Z,14.83
2018-10-07T19:35:25.354Z,17.97
2018-10-07T19:37:54.349Z,16.60
2018-10-07T19:40:25.601Z,21.80
2018-10-07T19:42:57.206Z,16.20
2018-10-07T19:45:27.228Z,12.53
2018-10-07T19:47:58.198Z,16.70
2018-10-07T19:50:28.382Z,13.73
2018-10-07T19:52:58.562Z,18.63
2018-10-07T19:55:31.396Z,16.70
2018-10-07T19:58:01.567Z,15.47
2018-10-07T20:00:31.461Z,15.33
2018-10-07T20:03:01.392Z,17.47
2018-10-07T20:05:30.739Z,15.90
2018-10-07T20:08:00.356Z,19.47
2018-10-07T20:10:29.953Z,18.17
2018-10-07T20:12:58.964Z,17.80
2018-10-07T20:15:28.440Z,16.23
2018-10-07T20:17:57.918Z,15.43
2018-10-07T20:20:27.834Z,14.57
2018-10-07T20:22:57.551Z,13.83
2018-10-07T20:25:27.586Z,14.90
2018-10-07T20:27:57.112Z,16.40
2018-10-07T20:30:26.983Z,16.63
2018-10-07T20:32:58.134Z,17.83
2018-10-07T20:35:28.174Z,16.53
2018-10-07T20:37:57.076Z,17.67
2018-10-07T20:40:26.543Z,17.30
2018-10-07T20:42:55.372Z,17.37
2018-10-07T20:45:24.909Z,20.50
2018-10-07T20:47:53.800Z,19.77
2018-10-07T20:50:25.332Z,19.40
2018-10-07T20:52:51.708Z,16.60
2018-10-07T20:55:20.621Z,18.87
2018-10-07T20:57:49.501Z,17.23
2018-10-07T21:00:18.414Z,21.60
2018-10-07T21:02:47.416Z,15.83
2018-10-07T21:05:16.497Z,17.93
2018-10-07T21:07:45.575Z,17.33
2018-10-07T21:10:14.437Z,24.53
2018-10-07T21:12:44.055Z,18.67
2018-10-07T21:15:13.032Z,18.97
2018-10-07T21:17:41.916Z,18.67
2018-10-07T21:20:10.893Z,21.48
2018-10-07T21:22:39.787Z,24.83
2018-10-07T21:25:08.620Z,21.27
2018-10-07T21:27:38.192Z,26.80
2018-10-07T21:30:07.455Z,18.83
2018-10-07T21:32:36.953Z,22.73
2018-10-07T21:35:05.907Z,24.27
2018-10-07T21:37:34.860Z,15.90
2018-10-07T21:40:03.821Z,18.87
2018-10-07T21:42:34.676Z,20.15
2018-10-07T21:45:04.434Z,18.40
2018-10-07T21:47:34.058Z,21.43
2018-10-07T21:50:02.944Z,16.07
2018-10-07T21:52:31.908Z,18.17
2018-10-07T21:55:00.714Z,20.53
2018-10-07T21:57:29.601Z,17.83
2018-10-07T21:59:58.794Z,17.80
2018-10-07T22:02:27.666Z,22.13
2018-10-07T22:04:56.560Z,18.63
2018-10-07T22:07:25.163Z,17.40
2018-10-07T22:09:53.636Z,19.70
2018-10-07T22:12:22.153Z,19.40
2018-10-07T22:14:50.657Z,21.23
2018-10-07T22:17:19.160Z,16.97
2018-10-07T22:19:47.687Z,17.10
2018-10-07T22:22:16.262Z,15.97
2018-10-07T22:24:44.755Z,18.43
2018-10-07T22:27:13.739Z,19.67
2018-10-07T22:29:42.255Z,15.43
2018-10-07T22:32:10.772Z,14.57
2018-10-07T22:34:39.367Z,16.48
2018-10-07T22:37:07.972Z,17.20
2018-10-07T22:39:36.500Z,16.13
2018-10-07T22:42:04.990Z,10.93
2018-10-07T22:44:33.516Z,13.17
2018-10-07T22:47:02.100Z,15.60
2018-10-07T22:49:30.627Z,11.87
2018-10-07T22:51:59.152Z,13.70
2018-10-07T22:54:27.756Z,12.57
2018-10-07T22:56:56.288Z,16.23
2018-10-07T22:59:24.759Z,18.27
2018-10-07T23:01:53.279Z,20.87
2018-10-07T23:04:22.649Z,18.50
2018-10-07T23:06:51.166Z,20.63
2018-10-07T23:09:19.708Z,15.37
2018-10-07T23:11:48.229Z,17.30
2018-10-07T23:14:16.744Z,22.37
2018-10-07T23:16:45.305Z,14.50
2018-10-07T23:19:13.806Z,11.20
2018-10-07T23:21:42.324Z,14.07
2018-10-07T23:24:10.893Z,14.53
2018-10-07T23:26:39.376Z,15.93
2018-10-07T23:29:07.920Z,14.00
2018-10-07T23:31:36.767Z,16.00
2018-10-07T23:34:05.272Z,14.13
2018-10-07T23:36:33.751Z,17.23
2018-10-07T23:39:02.271Z,15.00
2018-10-07T23:41:31.185Z,10.60
2018-10-07T23:43:59.724Z,14.23
2018-10-07T23:46:28.240Z,13.33
2018-10-07T23:48:56.821Z,10.43
2018-10-07T23:51:25.341Z,14.57
2018-10-07T23:53:53.920Z,14.27
2018-10-07T23:56:22.462Z,16.20
2018-10-07T23:58:51.012Z,15.63
